Time;durP1;ratioP1;P1;durP2;ratioP2;P2;SDS_P1;SDS_P2;PMS_P1;PMS_P2;Temp;Humidity;BMP_temperature;BMP_pressure;BME280_temperature;BME280_humidity;BME280_pressure;Samples;Min_cycle;Max_cycle;Signal;HPM_P1;HPM_P2
2023/12/23 00:00:11;;;;;;;12.68;1.88;;;;;;;10.31;100.00;100640.97;5031388;28;20037;-93
2023/12/23 00:02:38;;;;;;;12.27;1.77;;;;;;;10.25;100.00;100626.53;5035051;28;20047;-93
2023/12/23 00:05:04;;;;;;;16.65;2.45;;;;;;;10.34;100.00;100629.28;5038344;28;20033;-95
2023/12/23 00:07:38;;;;;;;9.40;1.67;;;;;;;10.35;100.00;100629.16;5033784;28;20127;-92
2023/12/23 00:10:04;;;;;;;7.35;1.80;;;;;;;10.24;100.00;100611.63;5028107;28;20041;-94
2023/12/23 00:12:30;;;;;;;17.10;1.75;;;;;;;10.30;100.00;100621.66;5014722;28;20136;-93
2023/12/23 00:14:59;;;;;;;9.38;1.42;;;;;;;10.30;100.00;100610.25;5045748;28;20040;-96
2023/12/23 00:17:25;;;;;;;9.13;1.40;;;;;;;10.30;100.00;100620.81;5017083;28;20029;-95
2023/12/23 00:19:51;;;;;;;11.77;1.73;;;;;;;10.34;100.00;100616.94;5023428;28;20025;-94
2023/12/23 00:22:17;;;;;;;8.80;1.40;;;;;;;10.32;100.00;100607.47;5012060;28;20041;-92
2023/12/23 00:24:46;;;;;;;10.27;1.40;;;;;;;10.29;100.00;100609.41;5039222;28;20039;-94
2023/12/23 00:27:12;;;;;;;6.80;1.30;;;;;;;10.28;100.00;100613.03;5052539;28;20037;-93
2023/12/23 00:29:40;;;;;;;7.85;1.40;;;;;;;10.28;100.00;100602.47;5015287;28;20041;-95
2023/12/23 00:32:16;;;;;;;7.43;1.40;;;;;;;10.31;100.00;100604.00;5028785;28;20036;-96
2023/12/23 00:34:48;;;;;;;8.18;1.30;;;;;;;10.27;100.00;100606.06;5034600;28;20040;-94
2023/12/23 00:37:15;;;;;;;10.82;1.20;;;;;;;10.26;100.00;100585.91;5039257;28;20041;-92
2023/12/23 00:39:44;;;;;;;8.35;1.38;;;;;;;10.21;100.00;100572.28;5043167;28;20112;-96
2023/12/23 00:42:10;;;;;;;10.82;1.13;;;;;;;10.16;100.00;100580.63;5053158;28;20041;-94
2023/12/23 00:44:38;;;;;;;7.20;1.27;;;;;;;10.15;100.00;100583.41;5036260;28;20481;-93
2023/12/23 00:47:04;;;;;;;8.23;1.42;;;;;;;10.11;100.00;100584.66;5035762;28;20040;-94
2023/12/23 00:49:30;;;;;;;7.90;0.90;;;;;;;10.08;100.00;100569.09;5047386;28;20069;-93
2023/12/23 00:51:57;;;;;;;8.23;1.27;;;;;;;10.03;100.00;100554.47;5017172;28;20493;-94
2023/12/23 00:54:23;;;;;;;15.32;1.85;;;;;;;10.08;100.00;100569.09;5011364;28;20068;-93
2023/12/23 00:56:49;;;;;;;5.40;1.15;;;;;;;10.05;100.00;100555.19;5033535;28;20369;-93
2023/12/23 00:59:15;;;;;;;7.57;1.58;;;;;;;10.06;100.00;100556.03;5035189;28;20066;-94
2023/12/23 01:01:44;;;;;;;10.65;1.70;;;;;;;10.10;100.00;100549.47;5011599;28;20052;-95
2023/12/23 01:04:10;;;;;;;8.10;2.05;;;;;;;10.08;100.00;100554.06;5030524;28;20076;-94
2023/12/23 01:06:36;;;;;;;7.13;1.30;;;;;;;10.10;100.00;100556.56;5050210;28;20149;-94
2023/12/23 01:09:02;;;;;;;10.13;1.08;;;;;;;10.04;100.00;100542.13;5037186;28;20028;-93
2023/12/23 01:11:33;;;;;;;5.00;0.75;;;;;;;10.04;100.00;100537.69;5046006;28;20120;-96
2023/12/23 01:13:59;;;;;;;8.15;1.20;;;;;;;9.92;100.00;100544.88;5032491;28;20108;-95
2023/12/23 01:16:25;;;;;;;5.32;0.93;;;;;;;9.90;100.00;100544.22;5018632;28;20045;-92
2023/12/23 01:18:53;;;;;;;5.68;0.88;;;;;;;9.82;100.00;100524.72;5045488;28;20029;-93
2023/12/23 01:21:21;;;;;;;4.55;0.90;;;;;;;9.84;100.00;100531.56;5048319;28;20043;-93
2023/12/23 01:23:47;;;;;;;5.57;0.98;;;;;;;9.77;100.00;100525.13;5057193;28;20029;-93
2023/12/23 01:26:13;;;;;;;6.28;0.70;;;;;;;9.82;100.00;100522.09;5028814;28;20128;-94
2023/12/23 01:28:39;;;;;;;8.38;1.08;;;;;;;9.80;100.00;100520.44;5033121;28;20029;-92
2023/12/23 01:31:05;;;;;;;3.85;0.80;;;;;;;9.77;100.00;100504.88;5034052;28;20044;-95
2023/12/23 01:33:31;;;;;;;7.90;0.75;;;;;;;9.83;100.00;100505.25;5050088;28;20496;-94
2023/12/23 01:35:57;;;;;;;4.88;0.70;;;;;;;9.86;100.00;100505.03;5034167;28;20029;-92
2023/12/23 01:38:23;;;;;;;3.22;0.50;;;;;;;9.85;100.00;100496.25;5032964;28;20048;-94
2023/12/23 01:40:49;;;;;;;4.63;0.57;;;;;;;9.86;100.00;100492.63;5031636;28;20043;-93
2023/12/23 01:43:16;;;;;;;4.32;0.50;;;;;;;9.86;100.00;100475.97;5054591;28;20043;-93
2023/12/23 01:45:41;;;;;;;6.13;0.85;;;;;;;9.82;100.00;100479.84;5020952;28;20037;-94
2023/12/23 01:48:10;;;;;;;3.53;0.60;;;;;;;9.84;100.00;100472.63;5014950;28;20025;-92
2023/12/23 01:50:37;;;;;;;5.25;0.63;;;;;;;9.87;100.00;100459.16;5015990;28;20473;-94
2023/12/23 01:53:04;;;;;;;5.20;0.80;;;;;;;9.86;100.00;100453.03;5050783;28;20033;-94
2023/12/23 01:55:31;;;;;;;4.97;0.80;;;;;;;9.88;100.00;100443.19;5051321;28;20044;-94
2023/12/23 01:57:57;;;;;;;3.55;0.65;;;;;;;9.88;100.00;100440.53;5019556;28;20040;-93
2023/12/23 02:00:23;;;;;;;6.18;0.80;;;;;;;9.87;100.00;100453.88;5031390;28;20041;-94
2023/12/23 02:02:49;;;;;;;6.25;0.52;;;;;;;9.88;100.00;100452.88;5031551;28;20033;-94
2023/12/23 02:05:15;;;;;;;9.95;0.70;;;;;;;9.91;100.00;100455.25;5029847;28;20408;-92
2023/12/23 02:07:45;;;;;;;1.63;0.45;;;;;;;9.93;100.00;100458.59;5015263;28;20061;-93
2023/12/23 02:10:12;;;;;;;8.88;0.77;;;;;;;9.91;100.00;100452.63;5031341;28;20067;-94
2023/12/23 02:13:11;;;;;;;4.47;0.68;;;;;;;9.90;100.00;100446.53;5025175;28;20057;-93
2023/12/23 02:15:37;;;;;;;6.32;0.50;;;;;;;9.80;100.00;100457.06;5029231;28;20063;-94
2023/12/23 02:18:03;;;;;;;6.10;0.70;;;;;;;9.79;100.00;100459.84;5019975;28;20063;-93
2023/12/23 02:20:29;;;;;;;2.42;0.32;;;;;;;9.74;100.00;100459.44;5040153;28;20144;-93
2023/12/23 02:22:55;;;;;;;6.07;0.65;;;;;;;9.74;100.00;100472.63;5055403;28;20116;-93
2023/12/23 02:25:22;;;;;;;6.75;0.63;;;;;;;9.79;100.00;100457.22;5029950;28;20052;-92
2023/12/23 02:28:09;;;;;;;3.15;0.50;;;;;;;9.78;100.00;100451.09;5035536;28;20040;-92
2023/12/23 02:30:40;;;;;;;4.90;0.70;;;;;;;9.78;100.00;100471.38;5047300;28;20033;-93
2023/12/23 02:33:06;;;;;;;7.88;1.10;;;;;;;9.75;100.00;100467.22;5019664;28;20045;-93
2023/12/23 02:35:32;;;;;;;4.07;0.60;;;;;;;9.72;100.00;100462.22;5051852;28;20044;-95
2023/12/23 02:37:58;;;;;;;4.57;0.52;;;;;;;9.74;100.00;100476.09;5049601;28;20033;-96
2023/12/23 02:40:24;;;;;;;5.25;0.55;;;;;;;9.73;100.00;100482.34;5009397;28;20051;-91
2023/12/23 02:42:50;;;;;;;7.65;1.02;;;;;;;9.72;100.00;100485.13;5035375;28;20037;-93
2023/12/23 02:45:16;;;;;;;7.30;0.85;;;;;;;9.77;100.00;100498.75;5020743;28;20094;-93
2023/12/23 02:47:42;;;;;;;4.82;0.98;;;;;;;9.70;100.00;100479.97;5027258;28;20029;-92
2023/12/23 02:50:14;;;;;;;3.45;0.85;;;;;;;9.62;100.00;100493.88;5021694;28;20120;-92
2023/12/23 02:52:40;;;;;;;9.35;1.40;;;;;;;9.55;100.00;100504.16;5035142;28;20079;-92
2023/12/23 02:55:06;;;;;;;5.78;0.82;;;;;;;9.51;100.00;100505.38;5040475;28;20476;-92
2023/12/23 02:57:32;;;;;;;7.65;0.90;;;;;;;9.52;100.00;100511.50;5037214;28;20083;-91
2023/12/23 02:59:58;;;;;;;5.78;1.25;;;;;;;9.49;100.00;100506.50;5036156;28;20041;-92
2023/12/23 03:02:23;;;;;;;11.52;0.98;;;;;;;9.45;100.00;100502.44;5053839;28;20393;-92
2023/12/23 03:04:49;;;;;;;6.15;1.02;;;;;;;9.39;100.00;100509.09;5038594;28;20040;-92
2023/12/23 03:07:15;;;;;;;3.97;0.63;;;;;;;9.37;100.00;100506.59;5033206;28;20127;-93
2023/12/23 03:09:41;;;;;;;8.50;1.45;;;;;;;9.41;100.00;100507.16;5070448;28;20075;-92
2023/12/23 03:12:07;;;;;;;9.07;1.15;;;;;;;9.42;100.00;100506.19;5037658;28;20453;-92
2023/12/23 03:14:33;;;;;;;4.78;0.63;;;;;;;9.41;100.00;100493.97;5010020;28;20163;-93
2023/12/23 03:16:59;;;;;;;3.78;0.90;;;;;;;9.42;100.00;100495.63;5004461;28;20032;-92
2023/12/23 03:19:25;;;;;;;10.50;1.10;;;;;;;9.36;100.00;100493.53;5027068;28;20037;-91
2023/12/23 03:21:50;;;;;;;10.63;1.17;;;;;;;9.36;100.00;100481.19;5049462;28;20118;-92
2023/12/23 03:24:16;;;;;;;8.80;1.27;;;;;;;9.36;100.00;100480.34;5052645;28;20048;-92
2023/12/23 03:26:42;;;;;;;6.63;1.08;;;;;;;9.39;100.00;100467.72;5020443;28;20061;-92
2023/12/23 03:29:08;;;;;;;8.68;1.15;;;;;;;9.38;100.00;100455.50;5051242;28;20154;-92
2023/12/23 03:31:34;;;;;;;6.13;0.63;;;;;;;9.39;100.00;100445.78;5035970;28;20028;-92
2023/12/23 03:34:00;;;;;;;9.05;1.40;;;;;;;9.37;100.00;100443.28;5026838;28;20064;-92
2023/12/23 03:36:27;;;;;;;7.57;1.10;;;;;;;9.36;100.00;100443.41;5028451;28;20492;-93
2023/12/23 03:38:53;;;;;;;7.00;1.00;;;;;;;9.36;100.00;100432.88;5064139;28;20059;-91
2023/12/23 03:41:19;;;;;;;8.20;1.33;;;;;;;9.33;100.00;100441.06;5068410;28;20496;-93
2023/12/23 03:43:45;;;;;;;8.23;0.85;;;;;;;9.32;100.00;100436.75;5035020;28;20032;-92
2023/12/23 03:46:11;;;;;;;6.75;0.90;;;;;;;9.34;100.00;100438.28;5010501;28;20044;-93
2023/12/23 03:48:37;;;;;;;5.03;0.60;;;;;;;9.36;100.00;100443.41;5069669;28;20045;-92
2023/12/23 03:51:03;;;;;;;4.03;0.70;;;;;;;9.36;100.00;100438.16;5035723;28;20070;-91
2023/12/23 03:53:29;;;;;;;7.65;1.10;;;;;;;9.29;100.00;100443.97;5017552;28;20485;-93
2023/12/23 03:55:54;;;;;;;7.18;1.85;;;;;;;9.28;100.00;100446.75;5035996;28;20043;-92
2023/12/23 03:58:20;;;;;;;6.57;0.70;;;;;;;9.25;100.00;100441.75;5032501;28;20549;-93
2023/12/23 04:00:47;;;;;;;2.55;0.65;;;;;;;9.27;100.00;100447.72;5054404;28;20055;-93
2023/12/23 04:03:13;;;;;;;7.53;0.90;;;;;;;9.27;100.00;100438.00;5053633;28;20496;-93
2023/12/23 04:05:39;;;;;;;4.88;0.70;;;;;;;9.30;100.00;100440.34;5020775;28;20033;-92
2023/12/23 04:08:05;;;;;;;4.50;0.63;;;;;;;9.30;100.00;100427.16;5030687;28;20543;-90
2023/12/23 04:10:31;;;;;;;3.08;0.47;;;;;;;9.28;100.00;100423.84;5036471;28;20060;-94
2023/12/23 04:12:57;;;;;;;4.18;0.80;;;;;;;9.29;100.00;100424.66;5053196;28;20072;-92
2023/12/23 04:15:23;;;;;;;6.35;0.80;;;;;;;9.28;100.00;100433.56;5038944;28;20477;-94
2023/12/23 04:17:49;;;;;;;8.15;0.60;;;;;;;9.28;100.00;100434.41;5035854;28;20068;-94
2023/12/23 04:20:15;;;;;;;3.13;0.60;;;;;;;9.30;100.00;100432.44;5011365;28;20068;-94
2023/12/23 04:22:44;;;;;;;5.18;0.68;;;;;;;9.30;100.00;100434.25;5054115;28;20083;-94
2023/12/23 04:25:10;;;;;;;7.07;0.80;;;;;;;9.28;100.00;100433.56;5019734;28;20050;-95
2023/12/23 04:27:36;;;;;;;8.23;0.93;;;;;;;9.28;100.00;100425.63;5024083;28;20036;-95
2023/12/23 04:30:03;;;;;;;6.55;0.63;;;;;;;9.29;100.00;100424.66;5023659;28;20037;-93
2023/12/23 04:32:29;;;;;;;5.38;0.70;;;;;;;9.27;100.00;100427.44;5014558;28;20408;-92
2023/12/23 04:34:55;;;;;;;8.10;1.08;;;;;;;9.26;100.00;100428.41;5036628;28;20037;-92
2023/12/23 04:37:21;;;;;;;4.10;0.70;;;;;;;9.27;100.00;100416.06;5038283;28;20571;-93
2023/12/23 04:39:47;;;;;;;4.35;0.68;;;;;;;9.32;100.00;100416.47;5029604;28;20036;-92
2023/12/23 04:42:13;;;;;;;7.80;0.95;;;;;;;9.31;100.00;100412.19;5038290;28;20028;-92
2023/12/23 04:44:39;;;;;;;4.40;0.63;;;;;;;9.32;100.00;100408.56;5050443;28;20469;-93
2023/12/23 04:47:05;;;;;;;5.10;0.68;;;;;;;9.31;100.00;100406.91;5019042;28;20115;-92
2023/12/23 04:49:31;;;;;;;8.90;0.80;;;;;;;9.29;100.00;100406.19;5020872;28;20041;-92
2023/12/23 04:51:57;;;;;;;5.43;0.75;;;;;;;9.26;100.00;100394.13;5034340;28;20025;-92
2023/12/23 04:54:23;;;;;;;5.32;0.70;;;;;;;9.30;100.00;100399.97;5023856;28;20044;-92
2023/12/23 04:56:49;;;;;;;6.30;0.90;;;;;;;9.32;100.00;100382.19;5020582;28;20048;-91
2023/12/23 04:59:14;;;;;;;5.35;0.68;;;;;;;9.35;100.00;100381.91;5032671;28;20043;-91
2023/12/23 05:01:40;;;;;;;7.43;1.10;;;;;;;9.35;100.00;100387.19;5050630;28;20131;-92
2023/12/23 05:04:06;;;;;;;5.25;0.88;;;;;;;9.35;100.00;100376.63;5030436;28;20082;-93
2023/12/23 05:06:32;;;;;;;9.68;1.10;;;;;;;9.38;100.00;100370.25;5037365;28;20041;-92
2023/12/23 05:08:58;;;;;;;6.65;1.17;;;;;;;9.37;100.00;100366.78;5010695;28;20029;-93
2023/12/23 05:11:24;;;;;;;6.72;1.40;;;;;;;9.40;100.00;100358.59;5046527;28;20045;-92
2023/12/23 05:13:50;;;;;;;7.75;1.00;;;;;;;9.37;100.00;100358.03;5034397;28;20110;-92
2023/12/23 05:16:16;;;;;;;7.55;1.05;;;;;;;9.35;100.00;100365.28;5034110;28;20485;-93
2023/12/23 05:18:42;;;;;;;5.13;1.00;;;;;;;9.35;100.00;100370.53;5033831;28;20045;-92
2023/12/23 05:21:08;;;;;;;6.93;0.80;;;;;;;9.33;100.00;100381.22;5044157;28;20473;-91
2023/12/23 05:23:34;;;;;;;8.32;1.27;;;;;;;9.34;100.00;100379.41;5034527;28;20068;-91
2023/12/23 05:26:00;;;;;;;3.55;1.02;;;;;;;9.35;100.00;100389.81;5034932;28;20059;-93
2023/12/23 05:28:26;;;;;;;6.57;1.13;;;;;;;9.35;100.00;100387.19;5022172;28;20053;-92
2023/12/23 05:30:51;;;;;;;4.43;0.70;;;;;;;9.35;100.00;100387.19;5034786;28;20037;-95
2023/12/23 05:33:18;;;;;;;9.57;2.63;;;;;;;9.35;100.00;100368.72;5016675;28;20108;-91
2023/12/23 05:35:44;;;;;;;5.00;1.58;;;;;;;9.35;100.00;100373.19;5032552;28;20377;-93
2023/12/23 05:38:10;;;;;;;9.15;1.35;;;;;;;9.38;100.00;100381.63;5033880;28;20037;-93
2023/12/23 05:40:37;;;;;;;4.78;0.77;;;;;;;9.35;100.00;100379.28;5017682;28;20041;-93
2023/12/23 05:43:03;;;;;;;6.85;1.45;;;;;;;9.38;100.00;100375.53;5049828;28;20056;-92
2023/12/23 05:45:29;;;;;;;3.67;0.90;;;;;;;9.42;100.00;100390.13;5050455;28;20098;-94
2023/12/23 05:47:55;;;;;;;11.52;1.35;;;;;;;9.43;100.00;100386.50;5018461;28;20033;-95
2023/12/23 05:50:20;;;;;;;8.02;0.82;;;;;;;9.45;100.00;100373.16;5023077;28;20511;-92
2023/12/23 05:52:46;;;;;;;5.15;0.55;;;;;;;9.46;100.00;100365.09;5043970;28;20029;-91
2023/12/23 05:55:12;;;;;;;8.38;0.70;;;;;;;9.38;100.00;100355.25;5038269;28;20041;-93
2023/12/23 05:57:38;;;;;;;8.35;0.90;;;;;;;9.42;100.00;100366.38;5017985;28;20041;-92
2023/12/23 06:00:05;;;;;;;10.60;0.80;;;;;;;9.43;100.00;100353.03;5041411;28;20143;-91
2023/12/23 06:02:38;;;;;;;5.90;1.33;;;;;;;9.42;100.00;100350.53;5038516;28;20036;-93
2023/12/23 06:05:04;;;;;;;6.40;0.93;;;;;;;9.42;100.00;100356.66;5054229;28;20045;-92
2023/12/23 06:07:30;;;;;;;5.10;0.93;;;;;;;9.41;100.00;100349.69;5027276;28;20044;-92
2023/12/23 06:09:55;;;;;;;4.20;0.50;;;;;;;9.42;100.00;100354.03;5038267;28;20477;-94
2023/12/23 06:12:21;;;;;;;6.68;1.08;;;;;;;9.43;100.00;100352.19;5051236;28;20516;-93
2023/12/23 06:14:51;;;;;;;6.88;0.73;;;;;;;9.46;100.00;100349.28;5050912;28;20041;-92
2023/12/23 06:17:17;;;;;;;5.70;0.52;;;;;;;9.39;100.00;100346.38;5062205;28;20029;-93
2023/12/23 06:19:42;;;;;;;4.00;0.60;;;;;;;9.38;100.00;100347.34;5021390;28;20037;-93
2023/12/23 06:22:08;;;;;;;5.00;0.85;;;;;;;9.38;100.00;100344.69;5031048;28;20099;-95
2023/12/23 06:24:34;;;;;;;4.07;0.70;;;;;;;9.42;100.00;100355.81;5021729;28;20087;-95
2023/12/23 06:27:00;;;;;;;5.38;0.50;;;;;;;9.41;100.00;100354.97;5038263;28;20089;-95
2023/12/23 06:29:25;;;;;;;4.22;0.50;;;;;;;9.41;100.00;100352.34;5053654;28;20032;-95
2023/12/23 06:31:51;;;;;;;6.88;0.50;;;;;;;9.39;100.00;100350.81;5023705;28;20029;-96
2023/12/23 06:34:17;;;;;;;4.28;0.75;;;;;;;9.45;100.00;100362.59;5038531;28;20040;-96
2023/12/23 06:36:43;;;;;;;8.88;0.85;;;;;;;9.44;100.00;100353.88;5020905;28;20033;-94
2023/12/23 06:39:08;;;;;;;8.88;1.33;;;;;;;9.42;100.00;100353.19;5034949;28;20032;-94
2023/12/23 06:41:34;;;;;;;3.92;0.50;;;;;;;9.47;100.00;100366.78;5052346;28;20567;-93
2023/12/23 06:44:00;;;;;;;10.30;0.98;;;;;;;9.48;100.00;100354.41;5056025;28;20037;-94
2023/12/23 06:46:26;;;;;;;10.63;0.80;;;;;;;9.49;100.00;100361.38;5021159;28;20041;-93
2023/12/23 06:48:51;;;;;;;7.97;0.60;;;;;;;9.51;100.00;100365.53;5020426;28;20155;-94
2023/12/23 06:51:17;;;;;;;7.25;1.08;;;;;;;9.52;100.00;100359.28;5037720;28;20037;-92
2023/12/23 06:53:43;;;;;;;13.68;1.80;;;;;;;9.56;100.00;100370.38;5035874;28;20035;-94
2023/12/23 06:56:11;;;;;;;5.60;0.70;;;;;;;9.60;100.00;100363.03;5045385;28;20097;-94
2023/12/23 06:58:36;;;;;;;6.70;0.82;;;;;;;9.58;100.00;100367.59;5020513;28;20029;-94
2023/12/23 07:01:02;;;;;;;7.75;1.10;;;;;;;9.61;100.00;100364.69;5054725;28;20039;-93
2023/12/23 07:03:28;;;;;;;5.65;1.20;;;;;;;9.62;100.00;100364.56;5051246;28;20033;-94
2023/12/23 07:05:54;;;;;;;9.25;1.17;;;;;;;9.63;100.00;100368.03;5051864;28;20389;-94
2023/12/23 07:08:19;;;;;;;8.75;0.80;;;;;;;9.60;100.00;100368.31;5069286;28;20048;-93
2023/12/23 07:10:45;;;;;;;6.78;0.98;;;;;;;9.59;100.00;100356.91;5051788;28;20033;-93
2023/12/23 07:13:11;;;;;;;9.00;0.98;;;;;;;9.59;100.00;100354.28;5032210;28;20056;-93
2023/12/23 07:15:37;;;;;;;4.70;0.90;;;;;;;9.61;100.00;100354.13;5038576;28;20040;-93
2023/12/23 07:18:03;;;;;;;5.03;0.60;;;;;;;9.59;100.00;100332.34;5062768;28;20057;-93
2023/12/23 07:20:30;;;;;;;9.88;0.80;;;;;;;9.59;100.00;100332.34;5062750;28;20036;-93
2023/12/23 07:22:56;;;;;;;3.63;0.88;;;;;;;9.58;100.00;100325.38;5033673;28;20040;-94
2023/12/23 07:25:21;;;;;;;8.68;1.02;;;;;;;9.52;100.00;100317.06;5038068;28;20029;-92
2023/12/23 07:27:47;;;;;;;3.80;0.50;;;;;;;9.52;100.00;100322.34;5032328;28;20487;-93
2023/12/23 07:30:16;;;;;;;8.10;1.00;;;;;;;9.54;100.00;100336.22;5070208;28;20119;-92
2023/12/23 07:32:42;;;;;;;4.85;0.63;;;;;;;9.56;100.00;100325.53;5037201;28;20043;-92
2023/12/23 07:35:07;;;;;;;5.25;0.63;;;;;;;9.55;100.00;100329.16;5019357;28;20040;-92
2023/12/23 07:37:33;;;;;;;5.57;0.73;;;;;;;9.54;100.00;100323.03;5051425;28;20033;-92
2023/12/23 07:39:59;;;;;;;8.02;1.70;;;;;;;9.56;100.00;100330.81;5024462;28;20124;-93
2023/12/23 07:42:25;;;;;;;3.20;0.70;;;;;;;9.56;100.00;100322.91;5031022;28;20041;-90
2023/12/23 07:44:50;;;;;;;4.80;0.68;;;;;;;9.57;100.00;100318.47;5053553;28;20033;-92
2023/12/23 07:47:17;;;;;;;7.72;0.50;;;;;;;9.57;100.00;100316.66;5054139;28;20041;-92
2023/12/23 07:49:43;;;;;;;3.08;0.50;;;;;;;9.57;100.00;100318.47;5051326;28;20033;-91
2023/12/23 07:52:08;;;;;;;3.70;0.57;;;;;;;9.55;100.00;100329.16;5020578;28;20032;-93
2023/12/23 07:54:34;;;;;;;5.53;0.70;;;;;;;9.55;100.00;100315.97;5024340;28;20124;-91
2023/12/23 07:57:00;;;;;;;2.78;0.60;;;;;;;9.53;100.00;100324.03;5030603;28;20473;-92
2023/12/23 07:59:26;;;;;;;5.43;0.60;;;;;;;9.52;100.00;100321.53;5035624;28;20036;-93
2023/12/23 08:01:51;;;;;;;9.30;0.85;;;;;;;9.49;100.00;100337.63;5018325;28;20037;-93
2023/12/23 08:04:17;;;;;;;7.55;0.95;;;;;;;9.50;100.00;100319.03;5048064;28;20091;-93
2023/12/23 08:06:43;;;;;;;5.95;0.88;;;;;;;9.50;100.00;100321.66;5047992;28;20548;-93
2023/12/23 08:09:10;;;;;;;4.38;0.77;;;;;;;9.47;100.00;100319.31;5029934;28;20083;-94
2023/12/23 08:11:36;;;;;;;7.25;0.70;;;;;;;9.45;100.00;100313.31;5026526;28;20029;-94
2023/12/23 08:14:03;;;;;;;3.03;0.50;;;;;;;9.48;100.00;100322.75;5018586;28;20079;-93
2023/12/23 08:16:29;;;;;;;7.13;0.98;;;;;;;9.39;100.00;100321.81;5020286;28;20532;-92
2023/12/23 08:18:55;;;;;;;5.90;0.45;;;;;;;9.41;100.00;100325.16;5024773;28;20033;-92
2023/12/23 08:21:21;;;;;;;10.70;1.45;;;;;;;9.37;100.00;100323.75;5027639;28;20056;-94
2023/12/23 08:23:47;;;;;;;3.05;0.50;;;;;;;9.39;100.00;100319.16;5027606;28;20489;-94
2023/12/23 08:26:13;;;;;;;4.32;0.57;;;;;;;9.41;100.00;100311.94;5032567;28;20504;-92
2023/12/23 08:28:38;;;;;;;9.68;0.80;;;;;;;9.39;100.00;100309.44;5030741;28;20029;-93
2023/12/23 08:31:05;;;;;;;7.65;0.88;;;;;;;9.41;100.00;100307.50;5048718;28;20036;-93
2023/12/23 08:33:32;;;;;;;8.77;1.00;;;;;;;9.46;100.00;100312.34;5042889;28;20033;-90
2023/12/23 08:35:59;;;;;;;6.65;0.65;;;;;;;9.45;100.00;100321.25;5037885;28;20037;-92
2023/12/23 08:38:24;;;;;;;6.47;0.55;;;;;;;9.45;100.00;100323.88;5034861;28;20457;-92
2023/12/23 08:40:50;;;;;;;3.88;0.77;;;;;;;9.45;100.00;100309.84;5068556;28;20068;-92
2023/12/23 08:43:16;;;;;;;3.83;0.63;;;;;;;9.42;100.00;100318.88;5024972;28;20792;-93
2023/12/23 08:45:42;;;;;;;3.95;0.55;;;;;;;9.45;100.00;100320.41;5013524;28;20042;-91
2023/12/23 08:48:08;;;;;;;7.13;0.70;;;;;;;9.46;100.00;100309.69;5045601;28;20607;-93
2023/12/23 08:50:34;;;;;;;10.80;1.67;;;;;;;9.43;100.00;100316.09;5015916;28;20041;-95
2023/12/23 08:53:00;;;;;;;8.18;1.35;;;;;;;9.45;100.00;100315.13;5028347;28;20035;-93
2023/12/23 08:55:26;;;;;;;4.53;0.95;;;;;;;9.45;100.00;100312.47;5036227;28;20060;-96
2023/12/23 08:57:53;;;;;;;5.13;0.95;;;;;;;9.46;100.00;100309.69;5031301;28;20072;-96
2023/12/23 09:00:19;;;;;;;5.88;1.35;;;;;;;9.48;100.00;100305.13;5051287;28;20072;-95
2023/12/23 09:02:45;;;;;;;13.18;0.80;;;;;;;9.46;100.00;100298.34;5047885;28;20033;-93
2023/12/23 09:05:11;;;;;;;8.50;0.68;;;;;;;9.46;100.00;100290.44;4987700;28;20045;-96
2023/12/23 09:07:37;;;;;;;5.03;0.73;;;;;;;9.43;100.00;100297.63;5034536;28;20033;-96
2023/12/23 09:10:07;;;;;;;4.55;0.82;;;;;;;9.49;100.00;100290.13;5020157;28;20037;-94
2023/12/23 09:12:35;;;;;;;5.22;0.70;;;;;;;9.42;100.00;100293.34;5017748;28;20049;-93
2023/12/23 09:15:01;;;;;;;7.80;0.82;;;;;;;9.39;100.00;100291.00;5017726;28;20094;-91
2023/12/23 09:17:27;;;;;;;4.20;0.60;;;;;;;9.41;100.00;100302.22;5033599;28;20055;-94
2023/12/23 09:19:53;;;;;;;3.45;0.45;;;;;;;9.42;100.00;100298.63;5014623;28;20481;-94
2023/12/23 09:22:19;;;;;;;2.95;0.63;;;;;;;9.43;100.00;100302.06;5030982;28;20045;-94
2023/12/23 09:24:45;;;;;;;3.90;0.40;;;;;;;9.46;100.00;100300.97;5016223;28;20045;-92
2023/12/23 09:27:11;;;;;;;7.03;0.57;;;;;;;9.46;100.00;100285.16;5051623;28;20556;-94
2023/12/23 09:29:37;;;;;;;4.15;0.40;;;;;;;9.47;100.00;100284.16;5035349;28;20044;-94
2023/12/23 09:32:03;;;;;;;4.63;0.70;;;;;;;9.51;100.00;100282.91;5034031;28;20044;-93
2023/12/23 09:34:29;;;;;;;4.15;0.43;;;;;;;9.52;100.00;100280.13;5032452;28;20037;-93
2023/12/23 09:36:55;;;;;;;3.47;0.70;;;;;;;9.52;100.00;100274.84;5050120;28;20033;-95
2023/12/23 09:39:20;;;;;;;4.32;0.35;;;;;;;9.53;100.00;100270.41;5032145;28;20107;-95
2023/12/23 09:41:47;;;;;;;3.60;0.52;;;;;;;9.51;100.00;100273.19;5048301;28;20033;-93
2023/12/23 09:44:13;;;;;;;2.67;0.70;;;;;;;9.53;100.00;100265.97;5036029;28;20029;-93
2023/12/23 09:46:39;;;;;;;0.50;0.20;;;;;;;9.59;100.00;100258.47;5064789;28;20091;-93
2023/12/23 09:49:05;;;;;;;7.95;0.50;;;;;;;9.61;100.00;100249.41;5034348;28;20485;-92
2023/12/23 09:51:32;;;;;;;5.50;0.77;;;;;;;9.65;100.00;100248.16;5034652;28;20127;-94
2023/12/23 09:54:02;;;;;;;2.45;0.40;;;;;;;9.72;100.00;100248.41;5031730;28;20040;-93
2023/12/23 09:56:29;;;;;;;6.68;0.88;;;;;;;9.71;100.00;100236.22;5017694;28;20037;-93
2023/12/23 09:58:55;;;;;;;3.78;0.40;;;;;;;9.74;100.00;100250.91;5013897;28;20103;-96
2023/12/23 10:01:21;;;;;;;8.07;0.38;;;;;;;9.75;100.00;100245.50;5067005;28;20037;-94
2023/12/23 10:03:47;;;;;;;2.55;0.55;;;;;;;9.77;100.00;100243.53;5013691;28;20155;-92
2023/12/23 10:06:13;;;;;;;3.80;0.82;;;;;;;9.82;100.00;100243.13;5034041;28;20385;-96
2023/12/23 10:08:40;;;;;;;2.33;0.60;;;;;;;9.80;100.00;100245.06;5020165;28;20029;-96
2023/12/23 10:11:05;;;;;;;5.10;1.80;;;;;;;9.81;100.00;100257.25;5047247;28;20021;-94
2023/12/23 10:13:31;;;;;;;3.58;0.50;;;;;;;9.83;100.00;100260.59;5034142;28;20057;-95
2023/12/23 10:15:57;;;;;;;3.00;0.40;;;;;;;9.84;100.00;100264.94;5018294;28;20036;-94
2023/12/23 10:18:24;;;;;;;2.50;0.40;;;;;;;9.84;100.00;100251.72;5029824;28;20034;-96
2023/12/23 10:20:50;;;;;;;5.68;0.47;;;;;;;9.88;100.00;100263.66;5052741;28;20033;-93
2023/12/23 10:23:16;;;;;;;2.92;0.47;;;;;;;9.92;100.00;100261.56;5066511;28;20033;-94
2023/12/23 10:25:42;;;;;;;3.38;0.50;;;;;;;9.96;100.00;100260.28;5034413;28;20420;-93
2023/12/23 10:28:09;;;;;;;3.30;0.63;;;;;;;10.00;100.00;100248.44;5013732;28;20036;-93
2023/12/23 10:30:40;;;;;;;4.28;0.60;;;;;;;10.01;100.00;100242.22;5042797;28;20503;-93
2023/12/23 10:33:07;;;;;;;10.55;0.85;;;;;;;10.01;100.00;100233.44;5048031;28;20064;-93
2023/12/23 10:35:47;;;;;;;5.30;0.60;;;;;;;10.07;100.00;100227.56;5047988;28;20037;-95
2023/12/23 10:38:18;;;;;;;4.03;0.50;;;;;;;10.05;100.00;100240.09;5052400;28;20043;-94
2023/12/23 10:40:51;;;;;;;4.78;0.93;;;;;;;10.04;100.00;100223.44;5032204;28;20029;-94
2023/12/23 10:43:18;;;;;;;2.80;0.45;;;;;;;10.05;100.00;100237.44;5015158;28;20083;-96
2023/12/23 10:45:48;;;;;;;4.45;0.85;;;;;;;10.05;100.00;100240.94;5040194;28;20469;-96
2023/12/23 10:48:17;;;;;;;2.20;0.40;;;;;;;10.08;100.00;100238.97;5018579;28;20029;-96
2023/12/23 10:50:47;;;;;;;5.18;0.77;;;;;;;10.11;100.00;100236.03;5023237;28;20033;-96
2023/12/23 10:53:16;;;;;;;3.65;0.55;;;;;;;10.07;100.00;100232.00;5053413;28;20120;-96
2023/12/23 10:55:45;;;;;;;4.65;0.50;;;;;;;10.13;100.00;100224.34;5037849;28;20041;-93
2023/12/23 10:58:12;;;;;;;3.85;0.45;;;;;;;10.16;100.00;100237.25;5025085;28;20041;-93
2023/12/23 11:00:39;;;;;;;2.40;0.50;;;;;;;10.20;100.00;100243.09;5040227;28;20120;-95
2023/12/23 11:03:07;;;;;;;3.83;0.45;;;;;;;10.20;100.00;100237.81;5031502;28;20112;-96
2023/12/23 11:05:36;;;;;;;1.23;0.40;;;;;;;10.29;100.00;100246.66;5039011;28;20037;-96
2023/12/23 11:08:07;;;;;;;3.72;0.52;;;;;;;10.29;100.00;100236.91;5037569;28;20130;-93
2023/12/23 11:10:36;;;;;;;2.25;0.30;;;;;;;10.27;100.00;100236.22;5038241;28;20041;-96
2023/12/23 11:13:02;;;;;;;0.70;0.15;;;;;;;10.21;100.00;100225.44;5055004;28;20055;-96
2023/12/23 11:15:29;;;;;;;3.38;0.60;;;;;;;10.31;100.00;100239.41;5032770;28;20055;-94
2023/12/23 11:17:55;;;;;;;2.88;0.40;;;;;;;10.23;100.00;100226.09;5036621;28;20044;-93
2023/12/23 11:20:35;;;;;;;3.17;0.43;;;;;;;10.27;100.00;100227.50;5017416;28;20041;-95